sensor_id;sensor_type;location;lat;lon;timestamp;P1;durP1;ratioP1;P2;durP2;ratioP2
76593;SDS011;65482;50.240;14.302;2024-01-11T00:00:59;103.88;;;34.55;;
76593;SDS011;65482;50.240;14.302;2024-01-11T00:03:37;96.60;;;34.50;;
76593;SDS011;65482;50.240;14.302;2024-01-11T00:06:02;94.03;;;36.90;;
76593;SDS011;65482;50.240;14.302;2024-01-11T00:08:29;89.53;;;35.25;;
76593;SDS011;65482;50.240;14.302;2024-01-11T00:10:55;100.28;;;35.75;;
76593;SDS011;65482;50.240;14.302;2024-01-11T00:13:20;91.50;;;34.42;;
76593;SDS011;65482;50.240;14.302;2024-01-11T00:15:46;89.55;;;34.10;;
76593;SDS011;65482;50.240;14.302;2024-01-11T00:18:12;89.55;;;35.45;;
76593;SDS011;65482;50.240;14.302;2024-01-11T00:20:37;102.22;;;33.55;;
76593;SDS011;65482;50.240;14.302;2024-01-11T00:23:03;99.18;;;35.22;;
76593;SDS011;65482;50.240;14.302;2024-01-11T00:25:29;87.97;;;32.50;;
76593;SDS011;65482;50.240;14.302;2024-01-11T00:27:54;98.25;;;36.45;;
76593;SDS011;65482;50.240;14.302;2024-01-11T00:30:20;98.43;;;35.42;;
76593;SDS011;65482;50.240;14.302;2024-01-11T00:32:45;87.82;;;35.08;;
76593;SDS011;65482;50.240;14.302;2024-01-11T00:35:11;92.45;;;34.88;;
76593;SDS011;65482;50.240;14.302;2024-01-11T00:37:36;90.28;;;33.15;;
76593;SDS011;65482;50.240;14.302;2024-01-11T00:40:02;90.63;;;33.50;;
76593;SDS011;65482;50.240;14.302;2024-01-11T00:42:28;96.63;;;33.90;;
76593;SDS011;65482;50.240;14.302;2024-01-11T00:44:53;88.03;;;31.58;;
76593;SDS011;65482;50.240;14.302;2024-01-11T00:47:19;97.80;;;34.30;;
76593;SDS011;65482;50.240;14.302;2024-01-11T00:49:44;88.80;;;33.75;;
76593;SDS011;65482;50.240;14.302;2024-01-11T00:52:10;79.10;;;30.70;;
76593;SDS011;65482;50.240;14.302;2024-01-11T00:54:39;91.00;;;33.47;;
76593;SDS011;65482;50.240;14.302;2024-01-11T00:57:05;88.22;;;33.90;;
76593;SDS011;65482;50.240;14.302;2024-01-11T00:59:30;78.72;;;32.35;;
76593;SDS011;65482;50.240;14.302;2024-01-11T01:01:56;88.60;;;32.65;;
76593;SDS011;65482;50.240;14.302;2024-01-11T01:04:21;90.47;;;34.25;;
76593;SDS011;65482;50.240;14.302;2024-01-11T01:06:47;96.65;;;34.50;;
76593;SDS011;65482;50.240;14.302;2024-01-11T01:09:12;88.13;;;33.13;;
76593;SDS011;65482;50.240;14.302;2024-01-11T01:11:38;81.38;;;32.92;;
76593;SDS011;65482;50.240;14.302;2024-01-11T01:14:04;92.10;;;32.97;;
76593;SDS011;65482;50.240;14.302;2024-01-11T01:16:30;87.20;;;32.13;;
76593;SDS011;65482;50.240;14.302;2024-01-11T01:18:55;87.07;;;33.85;;
76593;SDS011;65482;50.240;14.302;2024-01-11T01:21:21;85.28;;;31.98;;
76593;SDS011;65482;50.240;14.302;2024-01-11T01:23:47;93.50;;;33.22;;
76593;SDS011;65482;50.240;14.302;2024-01-11T01:26:12;90.10;;;33.17;;
76593;SDS011;65482;50.240;14.302;2024-01-11T01:28:38;80.72;;;30.70;;
76593;SDS011;65482;50.240;14.302;2024-01-11T01:31:05;82.93;;;32.00;;
76593;SDS011;65482;50.240;14.302;2024-01-11T01:33:30;86.88;;;34.35;;
76593;SDS011;65482;50.240;14.302;2024-01-11T01:35:56;81.50;;;31.67;;
76593;SDS011;65482;50.240;14.302;2024-01-11T01:38:22;89.40;;;31.50;;
76593;SDS011;65482;50.240;14.302;2024-01-11T01:40:48;89.68;;;32.95;;
76593;SDS011;65482;50.240;14.302;2024-01-11T01:43:14;85.35;;;31.98;;
76593;SDS011;65482;50.240;14.302;2024-01-11T01:45:40;85.65;;;31.00;;
76593;SDS011;65482;50.240;14.302;2024-01-11T01:48:05;90.15;;;31.92;;
76593;SDS011;65482;50.240;14.302;2024-01-11T01:50:32;84.82;;;31.60;;
76593;SDS011;65482;50.240;14.302;2024-01-11T01:52:58;78.72;;;29.88;;
76593;SDS011;65482;50.240;14.302;2024-01-11T01:55:25;87.72;;;31.65;;
76593;SDS011;65482;50.240;14.302;2024-01-11T01:57:52;86.88;;;31.33;;
76593;SDS011;65482;50.240;14.302;2024-01-11T02:00:19;85.25;;;31.02;;
76593;SDS011;65482;50.240;14.302;2024-01-11T02:02:45;93.70;;;33.88;;
76593;SDS011;65482;50.240;14.302;2024-01-11T02:05:15;89.30;;;32.08;;
76593;SDS011;65482;50.240;14.302;2024-01-11T02:07:42;90.20;;;30.20;;
76593;SDS011;65482;50.240;14.302;2024-01-11T02:10:09;83.15;;;31.33;;
76593;SDS011;65482;50.240;14.302;2024-01-11T02:12:35;80.97;;;30.60;;
76593;SDS011;65482;50.240;14.302;2024-01-11T02:15:03;87.15;;;31.45;;
76593;SDS011;65482;50.240;14.302;2024-01-11T02:17:30;88.90;;;33.42;;
76593;SDS011;65482;50.240;14.302;2024-01-11T02:19:56;77.05;;;30.90;;
76593;SDS011;65482;50.240;14.302;2024-01-11T02:22:22;82.15;;;30.83;;
76593;SDS011;65482;50.240;14.302;2024-01-11T02:24:54;85.88;;;30.55;;
76593;SDS011;65482;50.240;14.302;2024-01-11T02:27:20;81.05;;;30.92;;
76593;SDS011;65482;50.240;14.302;2024-01-11T02:29:45;84.38;;;29.88;;
76593;SDS011;65482;50.240;14.302;2024-01-11T02:32:11;86.78;;;30.55;;
76593;SDS011;65482;50.240;14.302;2024-01-11T02:34:37;99.53;;;33.17;;
76593;SDS011;65482;50.240;14.302;2024-01-11T02:37:03;78.78;;;30.98;;
76593;SDS011;65482;50.240;14.302;2024-01-11T02:39:30;77.95;;;28.27;;
76593;SDS011;65482;50.240;14.302;2024-01-11T02:41:56;73.15;;;28.83;;
76593;SDS011;65482;50.240;14.302;2024-01-11T02:44:25;74.03;;;28.55;;
76593;SDS011;65482;50.240;14.302;2024-01-11T02:46:51;97.88;;;31.20;;
76593;SDS011;65482;50.240;14.302;2024-01-11T02:49:17;78.85;;;29.02;;
76593;SDS011;65482;50.240;14.302;2024-01-11T02:51:42;83.72;;;28.48;;
76593;SDS011;65482;50.240;14.302;2024-01-11T02:54:08;82.65;;;29.65;;
76593;SDS011;65482;50.240;14.302;2024-01-11T02:56:33;72.47;;;28.70;;
76593;SDS011;65482;50.240;14.302;2024-01-11T02:58:59;69.28;;;27.90;;
76593;SDS011;65482;50.240;14.302;2024-01-11T03:01:25;68.30;;;27.17;;
76593;SDS011;65482;50.240;14.302;2024-01-11T03:03:50;85.05;;;31.00;;
76593;SDS011;65482;50.240;14.302;2024-01-11T03:06:16;77.78;;;28.75;;
76593;SDS011;65482;50.240;14.302;2024-01-11T03:08:46;67.70;;;27.35;;
76593;SDS011;65482;50.240;14.302;2024-01-11T03:11:15;87.85;;;29.92;;
76593;SDS011;65482;50.240;14.302;2024-01-11T03:13:41;81.22;;;30.25;;
76593;SDS011;65482;50.240;14.302;2024-01-11T03:16:07;70.85;;;27.05;;
76593;SDS011;65482;50.240;14.302;2024-01-11T03:18:32;85.75;;;28.25;;
76593;SDS011;65482;50.240;14.302;2024-01-11T03:20:58;79.80;;;27.00;;
76593;SDS011;65482;50.240;14.302;2024-01-11T03:23:24;81.68;;;28.77;;
76593;SDS011;65482;50.240;14.302;2024-01-11T03:25:49;67.60;;;26.52;;
76593;SDS011;65482;50.240;14.302;2024-01-11T03:28:15;77.18;;;27.70;;
76593;SDS011;65482;50.240;14.302;2024-01-11T03:30:40;71.72;;;26.90;;
76593;SDS011;65482;50.240;14.302;2024-01-11T03:33:06;71.35;;;25.23;;
76593;SDS011;65482;50.240;14.302;2024-01-11T03:35:32;82.05;;;26.20;;
76593;SDS011;65482;50.240;14.302;2024-01-11T03:37:57;72.07;;;27.63;;
76593;SDS011;65482;50.240;14.302;2024-01-11T03:40:23;75.57;;;28.42;;
76593;SDS011;65482;50.240;14.302;2024-01-11T03:42:48;75.20;;;26.73;;
76593;SDS011;65482;50.240;14.302;2024-01-11T03:45:17;82.18;;;27.92;;
76593;SDS011;65482;50.240;14.302;2024-01-11T03:47:44;77.80;;;26.35;;
76593;SDS011;65482;50.240;14.302;2024-01-11T03:50:10;73.18;;;27.50;;
76593;SDS011;65482;50.240;14.302;2024-01-11T03:52:35;70.10;;;25.73;;
76593;SDS011;65482;50.240;14.302;2024-01-11T03:55:01;70.57;;;26.73;;
76593;SDS011;65482;50.240;14.302;2024-01-11T03:57:27;69.30;;;27.75;;
76593;SDS011;65482;50.240;14.302;2024-01-11T03:59:52;68.40;;;26.13;;
76593;SDS011;65482;50.240;14.302;2024-01-11T04:02:18;68.10;;;27.33;;
76593;SDS011;65482;50.240;14.302;2024-01-11T04:04:44;70.20;;;27.85;;
76593;SDS011;65482;50.240;14.302;2024-01-11T04:07:10;75.90;;;26.73;;
76593;SDS011;65482;50.240;14.302;2024-01-11T04:09:38;78.03;;;26.70;;
76593;SDS011;65482;50.240;14.302;2024-01-11T04:12:04;76.28;;;28.00;;
76593;SDS011;65482;50.240;14.302;2024-01-11T04:14:31;61.33;;;24.52;;
76593;SDS011;65482;50.240;14.302;2024-01-11T04:16:56;79.70;;;26.55;;
76593;SDS011;65482;50.240;14.302;2024-01-11T04:19:22;74.15;;;27.38;;
76593;SDS011;65482;50.240;14.302;2024-01-11T04:21:48;74.57;;;28.52;;
76593;SDS011;65482;50.240;14.302;2024-01-11T04:24:14;64.35;;;25.90;;
76593;SDS011;65482;50.240;14.302;2024-01-11T04:26:40;75.22;;;27.00;;
76593;SDS011;65482;50.240;14.302;2024-01-11T04:29:05;70.28;;;27.50;;
76593;SDS011;65482;50.240;14.302;2024-01-11T04:31:31;72.25;;;27.05;;
76593;SDS011;65482;50.240;14.302;2024-01-11T04:33:57;68.50;;;25.83;;
76593;SDS011;65482;50.240;14.302;2024-01-11T04:36:22;62.25;;;25.15;;
76593;SDS011;65482;50.240;14.302;2024-01-11T04:38:48;77.55;;;28.58;;
76593;SDS011;65482;50.240;14.302;2024-01-11T04:41:14;62.30;;;23.80;;
76593;SDS011;65482;50.240;14.302;2024-01-11T04:43:41;71.13;;;26.45;;
76593;SDS011;65482;50.240;14.302;2024-01-11T04:48:43;68.05;;;25.83;;
76593;SDS011;65482;50.240;14.302;2024-01-11T04:51:09;77.03;;;27.70;;
76593;SDS011;65482;50.240;14.302;2024-01-11T04:53:36;67.72;;;26.55;;
76593;SDS011;65482;50.240;14.302;2024-01-11T04:56:02;66.88;;;25.80;;
76593;SDS011;65482;50.240;14.302;2024-01-11T04:58:28;77.30;;;26.77;;
76593;SDS011;65482;50.240;14.302;2024-01-11T05:00:54;71.13;;;23.88;;
76593;SDS011;65482;50.240;14.302;2024-01-11T05:03:19;64.05;;;25.05;;
76593;SDS011;65482;50.240;14.302;2024-01-11T05:05:45;58.85;;;23.20;;
76593;SDS011;65482;50.240;14.302;2024-01-11T05:08:10;57.60;;;23.80;;
76593;SDS011;65482;50.240;14.302;2024-01-11T05:10:36;67.30;;;24.40;;
76593;SDS011;65482;50.240;14.302;2024-01-11T05:13:01;64.30;;;23.67;;
76593;SDS011;65482;50.240;14.302;2024-01-11T05:15:27;67.07;;;24.90;;
76593;SDS011;65482;50.240;14.302;2024-01-11T05:17:54;68.45;;;24.25;;
76593;SDS011;65482;50.240;14.302;2024-01-11T05:20:21;67.93;;;24.50;;
76593;SDS011;65482;50.240;14.302;2024-01-11T05:22:46;66.78;;;23.92;;
76593;SDS011;65482;50.240;14.302;2024-01-11T05:25:12;67.90;;;23.02;;
76593;SDS011;65482;50.240;14.302;2024-01-11T05:27:38;69.57;;;26.08;;
76593;SDS011;65482;50.240;14.302;2024-01-11T05:30:03;67.60;;;24.38;;
76593;SDS011;65482;50.240;14.302;2024-01-11T05:32:29;71.18;;;24.90;;
76593;SDS011;65482;50.240;14.302;2024-01-11T05:34:55;66.55;;;24.95;;
76593;SDS011;65482;50.240;14.302;2024-01-11T05:37:21;66.35;;;23.95;;
76593;SDS011;65482;50.240;14.302;2024-01-11T05:39:46;65.63;;;26.05;;
76593;SDS011;65482;50.240;14.302;2024-01-11T05:42:12;69.43;;;24.25;;
76593;SDS011;65482;50.240;14.302;2024-01-11T05:44:37;85.50;;;26.65;;
76593;SDS011;65482;50.240;14.302;2024-01-11T05:47:03;73.25;;;26.52;;
76593;SDS011;65482;50.240;14.302;2024-01-11T05:49:29;68.75;;;27.08;;
76593;SDS011;65482;50.240;14.302;2024-01-11T05:51:55;58.53;;;23.20;;
76593;SDS011;65482;50.240;14.302;2024-01-11T05:54:20;71.90;;;25.85;;
76593;SDS011;65482;50.240;14.302;2024-01-11T05:56:46;73.72;;;27.20;;
76593;SDS011;65482;50.240;14.302;2024-01-11T05:59:11;71.70;;;26.75;;
76593;SDS011;65482;50.240;14.302;2024-01-11T06:01:40;77.63;;;26.67;;
76593;SDS011;65482;50.240;14.302;2024-01-11T06:04:07;72.80;;;27.95;;
76593;SDS011;65482;50.240;14.302;2024-01-11T06:06:33;84.63;;;27.20;;
76593;SDS011;65482;50.240;14.302;2024-01-11T06:08:58;96.07;;;33.85;;
76593;SDS011;65482;50.240;14.302;2024-01-11T06:11:24;102.65;;;35.63;;
76593;SDS011;65482;50.240;14.302;2024-01-11T06:13:49;99.40;;;32.10;;
76593;SDS011;65482;50.240;14.302;2024-01-11T06:16:15;77.03;;;29.27;;
76593;SDS011;65482;50.240;14.302;2024-01-11T06:18:40;82.53;;;29.95;;
76593;SDS011;65482;50.240;14.302;2024-01-11T06:21:06;76.43;;;28.80;;
76593;SDS011;65482;50.240;14.302;2024-01-11T06:23:32;88.32;;;29.75;;
76593;SDS011;65482;50.240;14.302;2024-01-11T06:25:57;82.25;;;28.10;;
76593;SDS011;65482;50.240;14.302;2024-01-11T06:28:23;83.18;;;29.10;;
76593;SDS011;65482;50.240;14.302;2024-01-11T06:30:48;66.07;;;25.63;;
76593;SDS011;65482;50.240;14.302;2024-01-11T06:33:14;74.65;;;27.02;;
76593;SDS011;65482;50.240;14.302;2024-01-11T06:35:40;88.40;;;26.83;;
76593;SDS011;65482;50.240;14.302;2024-01-11T06:38:05;75.93;;;27.15;;
76593;SDS011;65482;50.240;14.302;2024-01-11T06:40:31;71.30;;;26.48;;
76593;SDS011;65482;50.240;14.302;2024-01-11T06:42:57;73.28;;;25.40;;
76593;SDS011;65482;50.240;14.302;2024-01-11T06:45:23;57.28;;;23.95;;
76593;SDS011;65482;50.240;14.302;2024-01-11T06:47:48;63.47;;;24.75;;
76593;SDS011;65482;50.240;14.302;2024-01-11T06:50:14;70.10;;;25.38;;
76593;SDS011;65482;50.240;14.302;2024-01-11T06:52:42;73.05;;;23.95;;
76593;SDS011;65482;50.240;14.302;2024-01-11T06:59:39;59.13;;;22.70;;
76593;SDS011;65482;50.240;14.302;2024-01-11T07:03:27;56.10;;;22.05;;
76593;SDS011;65482;50.240;14.302;2024-01-11T07:05:55;64.43;;;24.27;;
76593;SDS011;65482;50.240;14.302;2024-01-11T07:08:55;63.15;;;23.45;;
76593;SDS011;65482;50.240;14.302;2024-01-11T07:11:38;60.78;;;24.05;;
76593;SDS011;65482;50.240;14.302;2024-01-11T07:15:17;51.50;;;22.25;;
76593;SDS011;65482;50.240;14.302;2024-01-11T07:17:46;67.40;;;24.35;;
76593;SDS011;65482;50.240;14.302;2024-01-11T07:20:12;58.50;;;24.15;;
76593;SDS011;65482;50.240;14.302;2024-01-11T07:22:42;69.85;;;26.95;;
76593;SDS011;65482;50.240;14.302;2024-01-11T07:25:07;84.25;;;26.10;;
76593;SDS011;65482;50.240;14.302;2024-01-11T07:27:33;80.93;;;27.50;;
76593;SDS011;65482;50.240;14.302;2024-01-11T07:30:00;72.13;;;28.85;;
76593;SDS011;65482;50.240;14.302;2024-01-11T07:32:27;74.57;;;27.15;;
76593;SDS011;65482;50.240;14.302;2024-01-11T07:34:53;73.90;;;27.10;;
76593;SDS011;65482;50.240;14.302;2024-01-11T07:37:18;80.45;;;28.90;;
76593;SDS011;65482;50.240;14.302;2024-01-11T07:39:44;67.57;;;27.70;;
76593;SDS011;65482;50.240;14.302;2024-01-11T07:42:12;75.53;;;28.15;;
76593;SDS011;65482;50.240;14.302;2024-01-11T07:44:39;68.40;;;27.73;;
76593;SDS011;65482;50.240;14.302;2024-01-11T07:47:05;60.60;;;25.58;;
76593;SDS011;65482;50.240;14.302;2024-01-11T07:49:31;65.50;;;25.88;;
76593;SDS011;65482;50.240;14.302;2024-01-11T07:51:57;60.88;;;25.17;;
76593;SDS011;65482;50.240;14.302;2024-01-11T07:54:23;69.82;;;26.13;;
76593;SDS011;65482;50.240;14.302;2024-01-11T08:15:24;59.15;;;25.13;;
76593;SDS011;65482;50.240;14.302;2024-01-11T08:42:00;64.93;;;24.45;;
76593;SDS011;65482;50.240;14.302;2024-01-11T08:44:29;69.55;;;27.60;;
76593;SDS011;65482;50.240;14.302;2024-01-11T08:47:01;68.32;;;27.23;;
76593;SDS011;65482;50.240;14.302;2024-01-11T08:49:46;65.05;;;25.73;;
76593;SDS011;65482;50.240;14.302;2024-01-11T08:52:15;74.18;;;28.15;;
76593;SDS011;65482;50.240;14.302;2024-01-11T08:54:44;68.13;;;27.73;;
76593;SDS011;65482;50.240;14.302;2024-01-11T08:57:09;68.25;;;28.17;;
76593;SDS011;65482;50.240;14.302;2024-01-11T08:59:35;62.60;;;27.05;;
76593;SDS011;65482;50.240;14.302;2024-01-11T09:02:16;71.97;;;26.85;;
76593;SDS011;65482;50.240;14.302;2024-01-11T09:04:43;65.38;;;26.67;;
76593;SDS011;65482;50.240;14.302;2024-01-11T09:07:10;66.80;;;26.98;;
76593;SDS011;65482;50.240;14.302;2024-01-11T09:09:36;65.03;;;26.52;;
76593;SDS011;65482;50.240;14.302;2024-01-11T09:12:01;71.80;;;29.20;;
76593;SDS011;65482;50.240;14.302;2024-01-11T09:14:28;74.28;;;29.63;;
76593;SDS011;65482;50.240;14.302;2024-01-11T09:16:53;78.28;;;30.88;;
76593;SDS011;65482;50.240;14.302;2024-01-11T09:19:20;66.20;;;29.17;;
76593;SDS011;65482;50.240;14.302;2024-01-11T09:21:47;70.32;;;28.73;;
76593;SDS011;65482;50.240;14.302;2024-01-11T09:24:13;67.00;;;28.05;;
76593;SDS011;65482;50.240;14.302;2024-01-11T09:26:49;59.42;;;26.42;;
76593;SDS011;65482;50.240;14.302;2024-01-11T09:29:15;75.75;;;28.73;;
76593;SDS011;65482;50.240;14.302;2024-01-11T09:31:42;69.93;;;27.73;;
76593;SDS011;65482;50.240;14.302;2024-01-11T09:34:08;63.63;;;26.52;;
76593;SDS011;65482;50.240;14.302;2024-01-11T09:36:34;62.25;;;28.08;;
76593;SDS011;65482;50.240;14.302;2024-01-11T09:39:05;67.47;;;27.33;;
76593;SDS011;65482;50.240;14.302;2024-01-11T09:41:31;72.65;;;28.08;;
76593;SDS011;65482;50.240;14.302;2024-01-11T09:43:57;72.38;;;29.10;;
76593;SDS011;65482;50.240;14.302;2024-01-11T09:46:27;63.30;;;28.30;;
76593;SDS011;65482;50.240;14.302;2024-01-11T09:48:59;70.85;;;27.98;;
76593;SDS011;65482;50.240;14.302;2024-01-11T09:51:56;69.18;;;27.83;;
76593;SDS011;65482;50.240;14.302;2024-01-11T09:54:33;63.63;;;27.08;;
76593;SDS011;65482;50.240;14.302;2024-01-11T09:57:26;68.82;;;27.52;;
76593;SDS011;65482;50.240;14.302;2024-01-11T09:59:57;51.90;;;25.23;;
76593;SDS011;65482;50.240;14.302;2024-01-11T10:02:29;66.70;;;28.13;;
76593;SDS011;65482;50.240;14.302;2024-01-11T10:04:55;86.45;;;37.92;;
76593;SDS011;65482;50.240;14.302;2024-01-11T10:07:24;68.25;;;30.38;;
76593;SDS011;65482;50.240;14.302;2024-01-11T10:09:51;69.35;;;29.15;;
76593;SDS011;65482;50.240;14.302;2024-01-11T10:12:22;71.63;;;28.77;;
76593;SDS011;65482;50.240;14.302;2024-01-11T10:14:56;67.97;;;29.02;;
76593;SDS011;65482;50.240;14.302;2024-01-11T10:17:32;65.75;;;26.85;;
76593;SDS011;65482;50.240;14.302;2024-01-11T10:19:59;64.65;;;28.00;;
76593;SDS011;65482;50.240;14.302;2024-01-11T10:22:27;65.40;;;29.02;;
76593;SDS011;65482;50.240;14.302;2024-01-11T10:27:41;65.10;;;28.30;;
76593;SDS011;65482;50.240;14.302;2024-01-11T10:30:51;65.88;;;28.55;;
76593;SDS011;65482;50.240;14.302;2024-01-11T10:33:20;61.92;;;27.15;;
76593;SDS011;65482;50.240;14.302;2024-01-11T10:35:49;70.15;;;29.00;;
76593;SDS011;65482;50.240;14.302;2024-01-11T10:38:42;62.53;;;27.15;;
76593;SDS011;65482;50.240;14.302;2024-01-11T10:45:18;67.28;;;28.73;;
76593;SDS011;65482;50.240;14.302;2024-01-11T10:48:25;59.65;;;27.40;;
76593;SDS011;65482;50.240;14.302;2024-01-11T10:51:18;58.58;;;27.35;;
76593;SDS011;65482;50.240;14.302;2024-01-11T10:54:42;59.88;;;27.25;;
76593;SDS011;65482;50.240;14.302;2024-01-11T11:00:44;68.72;;;29.13;;
76593;SDS011;65482;50.240;14.302;2024-01-11T11:03:38;61.85;;;27.65;;
76593;SDS011;65482;50.240;14.302;2024-01-11T11:15:13;69.10;;;27.92;;
76593;SDS011;65482;50.240;14.302;2024-01-11T11:42:22;56.37;;;24.20;;
76593;SDS011;65482;50.240;14.302;2024-01-11T11:53:34;46.50;;;20.77;;
76593;SDS011;65482;50.240;14.302;2024-01-11T11:56:46;50.55;;;21.52;;
76593;SDS011;65482;50.240;14.302;2024-01-11T12:07:53;58.83;;;23.13;;
76593;SDS011;65482;50.240;14.302;2024-01-11T12:11:03;51.55;;;20.83;;
76593;SDS011;65482;50.240;14.302;2024-01-11T12:16:40;44.97;;;20.27;;
76593;SDS011;65482;50.240;14.302;2024-01-11T12:19:19;46.92;;;20.05;;
76593;SDS011;65482;50.240;14.302;2024-01-11T12:21:52;60.15;;;20.98;;
76593;SDS011;65482;50.240;14.302;2024-01-11T12:24:35;47.00;;;20.52;;
76593;SDS011;65482;50.240;14.302;2024-01-11T12:27:44;47.83;;;20.48;;
76593;SDS011;65482;50.240;14.302;2024-01-11T12:30:16;44.47;;;20.75;;
76593;SDS011;65482;50.240;14.302;2024-01-11T12:33:04;45.20;;;21.27;;
76593;SDS011;65482;50.240;14.302;2024-01-11T12:35:33;45.28;;;19.70;;
76593;SDS011;65482;50.240;14.302;2024-01-11T12:38:04;44.53;;;20.52;;
76593;SDS011;65482;50.240;14.302;2024-01-11T12:40:36;46.40;;;20.35;;
76593;SDS011;65482;50.240;14.302;2024-01-11T12:43:03;46.47;;;21.55;;
76593;SDS011;65482;50.240;14.302;2024-01-11T12:45:33;50.70;;;20.55;;
76593;SDS011;65482;50.240;14.302;2024-01-11T12:48:00;38.67;;;19.90;;
76593;SDS011;65482;50.240;14.302;2024-01-11T12:50:28;48.95;;;21.08;;
76593;SDS011;65482;50.240;14.302;2024-01-11T12:58:33;45.35;;;20.00;;
76593;SDS011;65482;50.240;14.302;2024-01-11T13:01:13;43.83;;;20.35;;
76593;SDS011;65482;50.240;14.302;2024-01-11T13:03:55;40.83;;;18.98;;
76593;SDS011;65482;50.240;14.302;2024-01-11T13:07:10;43.47;;;19.95;;
76593;SDS011;65482;50.240;14.302;2024-01-11T13:09:45;43.13;;;20.35;;
76593;SDS011;65482;50.240;14.302;2024-01-11T13:12:12;49.15;;;20.70;;
76593;SDS011;65482;50.240;14.302;2024-01-11T13:14:38;44.97;;;20.92;;
76593;SDS011;65482;50.240;14.302;2024-01-11T13:17:06;43.70;;;21.00;;
76593;SDS011;65482;50.240;14.302;2024-01-11T13:19:32;39.33;;;19.58;;
76593;SDS011;65482;50.240;14.302;2024-01-11T13:22:06;49.30;;;20.80;;
76593;SDS011;65482;50.240;14.302;2024-01-11T13:24:31;43.88;;;19.92;;
76593;SDS011;65482;50.240;14.302;2024-01-11T13:26:57;43.30;;;20.30;;
76593;SDS011;65482;50.240;14.302;2024-01-11T13:29:22;44.30;;;19.35;;
76593;SDS011;65482;50.240;14.302;2024-01-11T13:31:48;42.28;;;20.13;;
76593;SDS011;65482;50.240;14.302;2024-01-11T13:34:13;36.85;;;19.40;;
76593;SDS011;65482;50.240;14.302;2024-01-11T13:36:39;39.45;;;18.85;;
76593;SDS011;65482;50.240;14.302;2024-01-11T13:39:04;61.70;;;21.33;;
76593;SDS011;65482;50.240;14.302;2024-01-11T13:41:33;48.15;;;20.92;;
76593;SDS011;65482;50.240;14.302;2024-01-11T13:43:59;46.67;;;19.83;;
76593;SDS011;65482;50.240;14.302;2024-01-11T13:46:24;47.03;;;19.65;;
76593;SDS011;65482;50.240;14.302;2024-01-11T13:48:50;41.95;;;19.42;;
76593;SDS011;65482;50.240;14.302;2024-01-11T13:51:15;37.42;;;19.17;;
76593;SDS011;65482;50.240;14.302;2024-01-11T13:53:41;42.45;;;18.63;;
76593;SDS011;65482;50.240;14.302;2024-01-11T13:56:07;42.58;;;18.90;;
76593;SDS011;65482;50.240;14.302;2024-01-11T13:58:32;38.47;;;18.45;;
76593;SDS011;65482;50.240;14.302;2024-01-11T14:00:59;40.00;;;18.77;;
76593;SDS011;65482;50.240;14.302;2024-01-11T14:03:24;37.20;;;18.10;;
76593;SDS011;65482;50.240;14.302;2024-01-11T14:05:50;40.75;;;18.48;;
76593;SDS011;65482;50.240;14.302;2024-01-11T14:08:16;38.53;;;19.23;;
76593;SDS011;65482;50.240;14.302;2024-01-11T14:10:41;38.35;;;18.10;;
76593;SDS011;65482;50.240;14.302;2024-01-11T14:13:07;34.00;;;18.17;;
76593;SDS011;65482;50.240;14.302;2024-01-11T14:15:33;40.13;;;17.63;;
76593;SDS011;65482;50.240;14.302;2024-01-11T14:18:02;34.58;;;17.45;;
76593;SDS011;65482;50.240;14.302;2024-01-11T14:20:29;34.08;;;17.35;;
76593;SDS011;65482;50.240;14.302;2024-01-11T14:22:55;36.53;;;17.23;;
76593;SDS011;65482;50.240;14.302;2024-01-11T14:25:22;34.13;;;17.58;;
76593;SDS011;65482;50.240;14.302;2024-01-11T14:27:50;40.08;;;19.17;;
76593;SDS011;65482;50.240;14.302;2024-01-11T14:30:16;37.40;;;18.33;;
76593;SDS011;65482;50.240;14.302;2024-01-11T14:32:42;34.63;;;17.90;;
76593;SDS011;65482;50.240;14.302;2024-01-11T14:35:08;41.78;;;19.80;;
76593;SDS011;65482;50.240;14.302;2024-01-11T14:37:40;41.97;;;19.35;;
76593;SDS011;65482;50.240;14.302;2024-01-11T14:40:27;41.08;;;19.85;;
76593;SDS011;65482;50.240;14.302;2024-01-11T14:43:14;40.92;;;19.85;;
76593;SDS011;65482;50.240;14.302;2024-01-11T14:46:07;38.22;;;18.50;;
76593;SDS011;65482;50.240;14.302;2024-01-11T14:49:00;43.75;;;20.60;;
76593;SDS011;65482;50.240;14.302;2024-01-11T14:51:58;40.90;;;19.85;;
76593;SDS011;65482;50.240;14.302;2024-01-11T14:54:36;44.55;;;20.42;;
76593;SDS011;65482;50.240;14.302;2024-01-11T14:57:02;45.13;;;19.95;;
76593;SDS011;65482;50.240;14.302;2024-01-11T14:59:28;49.28;;;21.70;;
76593;SDS011;65482;50.240;14.302;2024-01-11T15:01:54;47.97;;;22.02;;
76593;SDS011;65482;50.240;14.302;2024-01-11T15:04:20;46.35;;;21.95;;
76593;SDS011;65482;50.240;14.302;2024-01-11T15:06:47;52.72;;;23.25;;
76593;SDS011;65482;50.240;14.302;2024-01-11T15:09:14;49.92;;;22.88;;
76593;SDS011;65482;50.240;14.302;2024-01-11T15:11:40;51.55;;;22.77;;
76593;SDS011;65482;50.240;14.302;2024-01-11T15:14:09;52.20;;;21.50;;
76593;SDS011;65482;50.240;14.302;2024-01-11T15:16:35;58.22;;;23.73;;
76593;SDS011;65482;50.240;14.302;2024-01-11T15:19:01;60.28;;;24.17;;
76593;SDS011;65482;50.240;14.302;2024-01-11T15:21:27;55.15;;;23.70;;
76593;SDS011;65482;50.240;14.302;2024-01-11T15:23:54;57.08;;;24.58;;
76593;SDS011;65482;50.240;14.302;2024-01-11T15:26:20;55.10;;;24.98;;
76593;SDS011;65482;50.240;14.302;2024-01-11T15:28:46;58.63;;;25.15;;
76593;SDS011;65482;50.240;14.302;2024-01-11T15:31:13;61.40;;;25.20;;
76593;SDS011;65482;50.240;14.302;2024-01-11T15:33:39;59.55;;;26.60;;
76593;SDS011;65482;50.240;14.302;2024-01-11T15:36:05;64.72;;;26.63;;
76593;SDS011;65482;50.240;14.302;2024-01-11T15:38:34;70.93;;;28.35;;
76593;SDS011;65482;50.240;14.302;2024-01-11T15:41:00;75.60;;;30.75;;
76593;SDS011;65482;50.240;14.302;2024-01-11T15:43:26;87.03;;;32.40;;
76593;SDS011;65482;50.240;14.302;2024-01-11T15:45:53;81.95;;;32.50;;
76593;SDS011;65482;50.240;14.302;2024-01-11T15:48:18;86.72;;;32.58;;
76593;SDS011;65482;50.240;14.302;2024-01-11T15:50:44;89.18;;;36.03;;
76593;SDS011;65482;50.240;14.302;2024-01-11T15:53:10;90.53;;;36.58;;
76593;SDS011;65482;50.240;14.302;2024-01-11T15:55:36;83.60;;;34.63;;
76593;SDS011;65482;50.240;14.302;2024-01-11T15:58:01;84.40;;;36.55;;
76593;SDS011;65482;50.240;14.302;2024-01-11T16:00:27;78.38;;;35.47;;
76593;SDS011;65482;50.240;14.302;2024-01-11T16:02:53;87.30;;;35.00;;
76593;SDS011;65482;50.240;14.302;2024-01-11T16:05:21;87.50;;;35.65;;
76593;SDS011;65482;50.240;14.302;2024-01-11T16:07:52;89.30;;;35.97;;
76593;SDS011;65482;50.240;14.302;2024-01-11T16:10:18;87.35;;;36.83;;
76593;SDS011;65482;50.240;14.302;2024-01-11T16:12:44;89.13;;;34.45;;
76593;SDS011;65482;50.240;14.302;2024-01-11T16:15:09;83.72;;;34.97;;
76593;SDS011;65482;50.240;14.302;2024-01-11T16:17:36;90.13;;;37.75;;
76593;SDS011;65482;50.240;14.302;2024-01-11T16:20:02;91.38;;;36.60;;